sensor_id;sensor_type;location;lat;lon;timestamp;temperature;humidity
54518;DHT22;40423;53.176;6.002;2023-04-06T00:01:42;4.40;92.40
54518;DHT22;40423;53.176;6.002;2023-04-06T00:04:08;4.40;92.40
54518;DHT22;40423;53.176;6.002;2023-04-06T00:06:34;4.40;92.50
54518;DHT22;40423;53.176;6.002;2023-04-06T00:09:00;4.30;92.70
54518;DHT22;40423;53.176;6.002;2023-04-06T00:11:26;4.30;92.70
54518;DHT22;40423;53.176;6.002;2023-04-06T00:13:52;4.30;92.90
54518;DHT22;40423;53.176;6.002;2023-04-06T00:16:19;4.30;93.00
54518;DHT22;40423;53.176;6.002;2023-04-06T00:18:45;4.20;93.00
54518;DHT22;40423;53.176;6.002;2023-04-06T00:21:12;4.20;93.20
54518;DHT22;40423;53.176;6.002;2023-04-06T00:23:41;4.20;93.20
54518;DHT22;40423;53.176;6.002;2023-04-06T00:26:08;4.10;93.30
54518;DHT22;40423;53.176;6.002;2023-04-06T00:28:34;4.10;93.30
54518;DHT22;40423;53.176;6.002;2023-04-06T00:31:00;4.10;93.30
54518;DHT22;40423;53.176;6.002;2023-04-06T00:33:25;4.10;93.40
54518;DHT22;40423;53.176;6.002;2023-04-06T00:35:51;4.10;93.40
54518;DHT22;40423;53.176;6.002;2023-04-06T00:38:17;4.00;93.50
54518;DHT22;40423;53.176;6.002;2023-04-06T00:40:43;4.00;93.50
54518;DHT22;40423;53.176;6.002;2023-04-06T00:43:12;4.00;93.60
54518;DHT22;40423;53.176;6.002;2023-04-06T00:45:39;4.00;93.80
54518;DHT22;40423;53.176;6.002;2023-04-06T00:48:05;3.90;94.20
54518;DHT22;40423;53.176;6.002;2023-04-06T00:50:31;3.90;94.10
54518;DHT22;40423;53.176;6.002;2023-04-06T00:52:58;3.80;94.30
54518;DHT22;40423;53.176;6.002;2023-04-06T00:55:26;3.80;94.40
54518;DHT22;40423;53.176;6.002;2023-04-06T00:57:52;3.70;94.60
54518;DHT22;40423;53.176;6.002;2023-04-06T01:00:18;3.80;94.70
54518;DHT22;40423;53.176;6.002;2023-04-06T01:02:43;3.70;94.80
54518;DHT22;40423;53.176;6.002;2023-04-06T01:05:10;3.70;94.90
54518;DHT22;40423;53.176;6.002;2023-04-06T01:07:36;3.70;94.90
54518;DHT22;40423;53.176;6.002;2023-04-06T01:10:03;3.70;95.00
54518;DHT22;40423;53.176;6.002;2023-04-06T01:12:29;3.60;95.00
54518;DHT22;40423;53.176;6.002;2023-04-06T01:14:55;3.70;95.00
54518;DHT22;40423;53.176;6.002;2023-04-06T01:17:21;3.70;95.00
54518;DHT22;40423;53.176;6.002;2023-04-06T01:19:46;3.60;95.00
54518;DHT22;40423;53.176;6.002;2023-04-06T01:22:18;3.60;95.00
54518;DHT22;40423;53.176;6.002;2023-04-06T01:24:44;3.60;95.10
54518;DHT22;40423;53.176;6.002;2023-04-06T01:27:10;3.50;95.10
54518;DHT22;40423;53.176;6.002;2023-04-06T01:29:36;3.50;95.30
54518;DHT22;40423;53.176;6.002;2023-04-06T01:32:02;3.50;95.40
54518;DHT22;40423;53.176;6.002;2023-04-06T01:34:28;3.50;95.40
54518;DHT22;40423;53.176;6.002;2023-04-06T01:36:53;3.50;95.50
54518;DHT22;40423;53.176;6.002;2023-04-06T01:39:20;3.40;95.50
54518;DHT22;40423;53.176;6.002;2023-04-06T01:41:45;3.40;95.50
54518;DHT22;40423;53.176;6.002;2023-04-06T01:44:15;3.40;95.70
54518;DHT22;40423;53.176;6.002;2023-04-06T01:46:41;3.40;95.70
54518;DHT22;40423;53.176;6.002;2023-04-06T01:49:07;3.30;95.60
54518;DHT22;40423;53.176;6.002;2023-04-06T01:51:33;3.30;95.60
54518;DHT22;40423;53.176;6.002;2023-04-06T01:53:58;3.30;95.70
54518;DHT22;40423;53.176;6.002;2023-04-06T01:56:24;3.30;95.80
54518;DHT22;40423;53.176;6.002;2023-04-06T01:58:50;3.30;95.80
54518;DHT22;40423;53.176;6.002;2023-04-06T02:01:16;3.20;95.80
54518;DHT22;40423;53.176;6.002;2023-04-06T02:03:42;3.20;95.80
54518;DHT22;40423;53.176;6.002;2023-04-06T02:06:08;3.20;95.90
54518;DHT22;40423;53.176;6.002;2023-04-06T02:08:34;3.20;95.90
54518;DHT22;40423;53.176;6.002;2023-04-06T02:10:59;3.20;95.90
54518;DHT22;40423;53.176;6.002;2023-04-06T02:13:25;3.20;95.90
54518;DHT22;40423;53.176;6.002;2023-04-06T02:15:51;3.20;95.90
54518;DHT22;40423;53.176;6.002;2023-04-06T02:18:17;3.20;95.80
54518;DHT22;40423;53.176;6.002;2023-04-06T02:20:44;3.10;95.80
54518;DHT22;40423;53.176;6.002;2023-04-06T02:23:10;3.10;95.90
54518;DHT22;40423;53.176;6.002;2023-04-06T02:25:36;3.10;95.90
54518;DHT22;40423;53.176;6.002;2023-04-06T02:28:02;3.10;95.90
54518;DHT22;40423;53.176;6.002;2023-04-06T02:30:28;3.10;95.90
54518;DHT22;40423;53.176;6.002;2023-04-06T02:32:54;3.10;95.90
54518;DHT22;40423;53.176;6.002;2023-04-06T02:35:21;3.00;95.90
54518;DHT22;40423;53.176;6.002;2023-04-06T02:37:46;3.00;96.00
54518;DHT22;40423;53.176;6.002;2023-04-06T02:40:13;3.00;96.10
54518;DHT22;40423;53.176;6.002;2023-04-06T02:42:39;3.00;96.20
54518;DHT22;40423;53.176;6.002;2023-04-06T02:45:05;3.00;96.20
54518;DHT22;40423;53.176;6.002;2023-04-06T02:47:31;3.00;96.40
54518;DHT22;40423;53.176;6.002;2023-04-06T02:49:56;3.00;96.50
54518;DHT22;40423;53.176;6.002;2023-04-06T02:52:22;2.90;96.40
54518;DHT22;40423;53.176;6.002;2023-04-06T02:54:48;2.90;96.50
54518;DHT22;40423;53.176;6.002;2023-04-06T02:57:14;3.00;96.50
54518;DHT22;40423;53.176;6.002;2023-04-06T02:59:39;2.90;96.50
54518;DHT22;40423;53.176;6.002;2023-04-06T03:02:05;2.90;96.50
54518;DHT22;40423;53.176;6.002;2023-04-06T03:04:31;2.90;96.50
54518;DHT22;40423;53.176;6.002;2023-04-06T03:06:56;2.90;96.50
54518;DHT22;40423;53.176;6.002;2023-04-06T03:09:22;2.90;96.50
54518;DHT22;40423;53.176;6.002;2023-04-06T03:11:48;2.90;96.50
54518;DHT22;40423;53.176;6.002;2023-04-06T03:14:14;2.80;96.50
54518;DHT22;40423;53.176;6.002;2023-04-06T03:16:40;2.80;96.60
54518;DHT22;40423;53.176;6.002;2023-04-06T03:19:05;2.80;96.60
54518;DHT22;40423;53.176;6.002;2023-04-06T03:21:31;2.80;96.70
54518;DHT22;40423;53.176;6.002;2023-04-06T03:23:57;2.70;96.60
54518;DHT22;40423;53.176;6.002;2023-04-06T03:26:23;2.70;96.60
54518;DHT22;40423;53.176;6.002;2023-04-06T03:28:48;2.70;96.70
54518;DHT22;40423;53.176;6.002;2023-04-06T03:31:14;2.70;96.80
54518;DHT22;40423;53.176;6.002;2023-04-06T03:33:40;2.70;96.80
54518;DHT22;40423;53.176;6.002;2023-04-06T03:36:06;2.70;96.80
54518;DHT22;40423;53.176;6.002;2023-04-06T03:38:32;2.70;96.80
54518;DHT22;40423;53.176;6.002;2023-04-06T03:40:58;2.70;96.80
54518;DHT22;40423;53.176;6.002;2023-04-06T03:43:23;2.70;96.80
54518;DHT22;40423;53.176;6.002;2023-04-06T03:45:49;2.70;96.80
54518;DHT22;40423;53.176;6.002;2023-04-06T03:48:15;2.70;96.80
54518;DHT22;40423;53.176;6.002;2023-04-06T03:50:41;2.60;96.80
54518;DHT22;40423;53.176;6.002;2023-04-06T03:53:06;2.60;96.90
54518;DHT22;40423;53.176;6.002;2023-04-06T03:55:32;2.60;96.90
54518;DHT22;40423;53.176;6.002;2023-04-06T03:57:58;2.60;96.90
54518;DHT22;40423;53.176;6.002;2023-04-06T04:00:24;2.60;96.90
54518;DHT22;40423;53.176;6.002;2023-04-06T04:02:50;2.60;96.90
54518;DHT22;40423;53.176;6.002;2023-04-06T04:05:16;2.50;96.90
54518;DHT22;40423;53.176;6.002;2023-04-06T04:07:42;2.50;97.00
54518;DHT22;40423;53.176;6.002;2023-04-06T04:10:08;2.60;97.00
54518;DHT22;40423;53.176;6.002;2023-04-06T04:12:34;2.50;97.00
54518;DHT22;40423;53.176;6.002;2023-04-06T04:14:59;2.50;97.00
54518;DHT22;40423;53.176;6.002;2023-04-06T04:17:25;2.50;97.10
54518;DHT22;40423;53.176;6.002;2023-04-06T04:19:51;2.50;97.10
54518;DHT22;40423;53.176;6.002;2023-04-06T04:22:16;2.50;97.10
54518;DHT22;40423;53.176;6.002;2023-04-06T04:24:42;2.50;97.20
54518;DHT22;40423;53.176;6.002;2023-04-06T04:27:08;2.40;97.30
54518;DHT22;40423;53.176;6.002;2023-04-06T04:29:34;2.50;97.40
54518;DHT22;40423;53.176;6.002;2023-04-06T04:32:00;2.50;97.40
54518;DHT22;40423;53.176;6.002;2023-04-06T04:34:26;2.50;97.40
54518;DHT22;40423;53.176;6.002;2023-04-06T04:36:52;2.50;97.50
54518;DHT22;40423;53.176;6.002;2023-04-06T04:39:18;2.50;97.60
54518;DHT22;40423;53.176;6.002;2023-04-06T04:41:44;2.50;97.60
54518;DHT22;40423;53.176;6.002;2023-04-06T04:44:09;2.50;97.60
54518;DHT22;40423;53.176;6.002;2023-04-06T04:46:35;2.50;97.70
54518;DHT22;40423;53.176;6.002;2023-04-06T04:49:01;2.50;97.70
54518;DHT22;40423;53.176;6.002;2023-04-06T04:51:27;2.40;97.70
54518;DHT22;40423;53.176;6.002;2023-04-06T04:53:53;2.40;97.70
54518;DHT22;40423;53.176;6.002;2023-04-06T04:56:19;2.40;97.70
54518;DHT22;40423;53.176;6.002;2023-04-06T04:58:44;2.40;97.80
54518;DHT22;40423;53.176;6.002;2023-04-06T05:01:10;2.40;97.80
54518;DHT22;40423;53.176;6.002;2023-04-06T05:03:36;2.40;97.90
54518;DHT22;40423;53.176;6.002;2023-04-06T05:06:04;2.40;98.10
54518;DHT22;40423;53.176;6.002;2023-04-06T05:08:30;2.40;97.90
54518;DHT22;40423;53.176;6.002;2023-04-06T05:10:56;2.30;97.80
54518;DHT22;40423;53.176;6.002;2023-04-06T05:13:22;2.30;97.90
54518;DHT22;40423;53.176;6.002;2023-04-06T05:15:48;2.30;97.90
54518;DHT22;40423;53.176;6.002;2023-04-06T05:18:13;2.30;97.90
54518;DHT22;40423;53.176;6.002;2023-04-06T05:20:40;2.30;98.00
54518;DHT22;40423;53.176;6.002;2023-04-06T05:23:06;2.40;98.00
54518;DHT22;40423;53.176;6.002;2023-04-06T05:25:32;2.40;98.10
54518;DHT22;40423;53.176;6.002;2023-04-06T05:27:58;2.40;98.10
54518;DHT22;40423;53.176;6.002;2023-04-06T05:30:24;2.40;98.10
54518;DHT22;40423;53.176;6.002;2023-04-06T05:32:50;2.40;98.30
54518;DHT22;40423;53.176;6.002;2023-04-06T05:35:19;2.40;98.30
54518;DHT22;40423;53.176;6.002;2023-04-06T05:37:45;2.40;98.30
54518;DHT22;40423;53.176;6.002;2023-04-06T05:40:11;2.40;98.50
54518;DHT22;40423;53.176;6.002;2023-04-06T05:42:38;2.40;98.50
54518;DHT22;40423;53.176;6.002;2023-04-06T05:45:07;2.50;98.60
54518;DHT22;40423;53.176;6.002;2023-04-06T05:47:33;2.50;98.70
54518;DHT22;40423;53.176;6.002;2023-04-06T05:49:59;2.50;98.80
54518;DHT22;40423;53.176;6.002;2023-04-06T05:52:25;2.60;98.90
54518;DHT22;40423;53.176;6.002;2023-04-06T05:54:51;2.60;99.00
54518;DHT22;40423;53.176;6.002;2023-04-06T05:57:17;2.70;99.00
54518;DHT22;40423;53.176;6.002;2023-04-06T05:59:46;2.70;98.90
54518;DHT22;40423;53.176;6.002;2023-04-06T06:02:12;2.80;99.00
54518;DHT22;40423;53.176;6.002;2023-04-06T06:04:38;2.80;99.10
54518;DHT22;40423;53.176;6.002;2023-04-06T06:07:03;2.80;99.10
54518;DHT22;40423;53.176;6.002;2023-04-06T06:09:29;2.90;99.40
54518;DHT22;40423;53.176;6.002;2023-04-06T06:11:55;2.90;99.30
54518;DHT22;40423;53.176;6.002;2023-04-06T06:14:21;3.10;99.40
54518;DHT22;40423;53.176;6.002;2023-04-06T06:16:47;3.20;99.40
54518;DHT22;40423;53.176;6.002;2023-04-06T06:19:13;3.30;99.40
54518;DHT22;40423;53.176;6.002;2023-04-06T06:21:39;3.40;99.30
54518;DHT22;40423;53.176;6.002;2023-04-06T06:24:06;3.40;99.40
54518;DHT22;40423;53.176;6.002;2023-04-06T06:26:32;3.40;99.20
54518;DHT22;40423;53.176;6.002;2023-04-06T06:28:57;3.40;99.10
54518;DHT22;40423;53.176;6.002;2023-04-06T06:31:23;3.50;99.10
54518;DHT22;40423;53.176;6.002;2023-04-06T06:33:50;3.60;99.10
54518;DHT22;40423;53.176;6.002;2023-04-06T06:36:19;3.60;99.10
54518;DHT22;40423;53.176;6.002;2023-04-06T06:38:45;3.70;99.00
54518;DHT22;40423;53.176;6.002;2023-04-06T06:41:11;3.80;99.00
54518;DHT22;40423;53.176;6.002;2023-04-06T06:43:37;4.00;99.00
54518;DHT22;40423;53.176;6.002;2023-04-06T06:46:03;4.10;99.00
54518;DHT22;40423;53.176;6.002;2023-04-06T06:48:29;4.20;99.10
54518;DHT22;40423;53.176;6.002;2023-04-06T06:50:56;4.40;99.10
54518;DHT22;40423;53.176;6.002;2023-04-06T06:53:23;4.50;98.80
54518;DHT22;40423;53.176;6.002;2023-04-06T06:55:48;4.60;98.50
54518;DHT22;40423;53.176;6.002;2023-04-06T06:58:14;4.70;98.40
54518;DHT22;40423;53.176;6.002;2023-04-06T07:00:40;4.70;98.30
54518;DHT22;40423;53.176;6.002;2023-04-06T07:03:06;4.70;98.20
54518;DHT22;40423;53.176;6.002;2023-04-06T07:05:32;4.80;98.00
54518;DHT22;40423;53.176;6.002;2023-04-06T07:07:58;5.00;98.00
54518;DHT22;40423;53.176;6.002;2023-04-06T07:10:24;5.20;98.00
54518;DHT22;40423;53.176;6.002;2023-04-06T07:12:50;5.40;98.00
54518;DHT22;40423;53.176;6.002;2023-04-06T07:15:16;5.60;97.80
54518;DHT22;40423;53.176;6.002;2023-04-06T07:17:42;5.80;97.20
54518;DHT22;40423;53.176;6.002;2023-04-06T07:20:11;6.10;97.00
54518;DHT22;40423;53.176;6.002;2023-04-06T07:22:38;6.30;96.50
54518;DHT22;40423;53.176;6.002;2023-04-06T07:25:04;6.50;96.40
54518;DHT22;40423;53.176;6.002;2023-04-06T07:27:30;6.70;96.60
54518;DHT22;40423;53.176;6.002;2023-04-06T07:29:56;6.90;96.10
54518;DHT22;40423;53.176;6.002;2023-04-06T07:32:22;7.00;96.00
54518;DHT22;40423;53.176;6.002;2023-04-06T07:34:47;7.30;95.70
54518;DHT22;40423;53.176;6.002;2023-04-06T07:37:13;7.50;95.20
54518;DHT22;40423;53.176;6.002;2023-04-06T07:39:39;7.60;95.00
54518;DHT22;40423;53.176;6.002;2023-04-06T07:42:05;7.80;94.70
54518;DHT22;40423;53.176;6.002;2023-04-06T07:44:31;8.00;94.60
54518;DHT22;40423;53.176;6.002;2023-04-06T07:46:57;8.10;93.90
54518;DHT22;40423;53.176;6.002;2023-04-06T07:49:23;8.20;93.50
54518;DHT22;40423;53.176;6.002;2023-04-06T07:51:49;8.10;93.40
54518;DHT22;40423;53.176;6.002;2023-04-06T07:54:14;8.10;93.00
54518;DHT22;40423;53.176;6.002;2023-04-06T07:56:40;8.00;92.40
54518;DHT22;40423;53.176;6.002;2023-04-06T07:59:06;8.00;91.70
54518;DHT22;40423;53.176;6.002;2023-04-06T08:01:32;8.00;92.30
54518;DHT22;40423;53.176;6.002;2023-04-06T08:03:58;8.10;92.70
54518;DHT22;40423;53.176;6.002;2023-04-06T08:06:24;8.10;92.70
54518;DHT22;40423;53.176;6.002;2023-04-06T08:08:50;8.20;92.70
54518;DHT22;40423;53.176;6.002;2023-04-06T08:11:16;8.20;93.10
54518;DHT22;40423;53.176;6.002;2023-04-06T08:13:42;8.30;93.20
54518;DHT22;40423;53.176;6.002;2023-04-06T08:16:08;8.40;92.80
54518;DHT22;40423;53.176;6.002;2023-04-06T08:18:33;8.40;92.30
54518;DHT22;40423;53.176;6.002;2023-04-06T08:20:59;8.50;92.20
54518;DHT22;40423;53.176;6.002;2023-04-06T08:23:25;8.50;92.30
54518;DHT22;40423;53.176;6.002;2023-04-06T08:25:51;8.60;92.10
54518;DHT22;40423;53.176;6.002;2023-04-06T08:28:20;8.80;92.40
54518;DHT22;40423;53.176;6.002;2023-04-06T08:30:46;8.90;92.30
54518;DHT22;40423;53.176;6.002;2023-04-06T08:33:12;9.20;92.40
54518;DHT22;40423;53.176;6.002;2023-04-06T08:35:38;9.30;91.80
54518;DHT22;40423;53.176;6.002;2023-04-06T08:38:04;9.50;91.80
54518;DHT22;40423;53.176;6.002;2023-04-06T08:40:30;9.50;91.20
54518;DHT22;40423;53.176;6.002;2023-04-06T08:43:03;9.50;91.10
54518;DHT22;40423;53.176;6.002;2023-04-06T08:45:34;9.50;91.10
54518;DHT22;40423;53.176;6.002;2023-04-06T08:48:00;9.60;91.10
54518;DHT22;40423;53.176;6.002;2023-04-06T08:50:29;9.50;90.30
54518;DHT22;40423;53.176;6.002;2023-04-06T08:52:55;9.50;90.80
54518;DHT22;40423;53.176;6.002;2023-04-06T08:55:22;9.60;90.90
54518;DHT22;40423;53.176;6.002;2023-04-06T08:57:48;9.70;90.30
54518;DHT22;40423;53.176;6.002;2023-04-06T09:00:14;9.80;90.80
54518;DHT22;40423;53.176;6.002;2023-04-06T09:02:43;9.90;90.30
54518;DHT22;40423;53.176;6.002;2023-04-06T09:05:09;9.90;90.30
54518;DHT22;40423;53.176;6.002;2023-04-06T09:07:36;10.00;90.20
54518;DHT22;40423;53.176;6.002;2023-04-06T09:10:06;10.00;90.20
54518;DHT22;40423;53.176;6.002;2023-04-06T09:12:32;10.10;90.20
54518;DHT22;40423;53.176;6.002;2023-04-06T09:14:59;10.10;90.40
54518;DHT22;40423;53.176;6.002;2023-04-06T09:17:29;10.20;90.60
54518;DHT22;40423;53.176;6.002;2023-04-06T09:19:59;10.30;90.00
54518;DHT22;40423;53.176;6.002;2023-04-06T09:22:58;10.50;89.80
54518;DHT22;40423;53.176;6.002;2023-04-06T09:25:22;10.50;89.10
54518;DHT22;40423;53.176;6.002;2023-04-06T09:28:04;10.60;88.20
54518;DHT22;40423;53.176;6.002;2023-04-06T09:30:32;10.80;88.00
54518;DHT22;40423;53.176;6.002;2023-04-06T09:32:58;11.00;88.60
54518;DHT22;40423;53.176;6.002;2023-04-06T09:35:25;11.10;88.80
54518;DHT22;40423;53.176;6.002;2023-04-06T09:37:55;11.20;87.90
54518;DHT22;40423;53.176;6.002;2023-04-06T09:40:21;11.20;85.30
54518;DHT22;40423;53.176;6.002;2023-04-06T09:42:48;11.30;87.20
54518;DHT22;40423;53.176;6.002;2023-04-06T09:45:19;11.40;86.00
54518;DHT22;40423;53.176;6.002;2023-04-06T09:47:46;11.60;86.30
54518;DHT22;40423;53.176;6.002;2023-04-06T09:50:13;11.70;85.90
54518;DHT22;40423;53.176;6.002;2023-04-06T09:52:49;11.80;86.30
54518;DHT22;40423;53.176;6.002;2023-04-06T09:55:34;12.10;87.40
54518;DHT22;40423;53.176;6.002;2023-04-06T09:58:05;12.30;83.70
54518;DHT22;40423;53.176;6.002;2023-04-06T10:00:34;12.40;84.50
54518;DHT22;40423;53.176;6.002;2023-04-06T10:05:54;12.40;83.90
54518;DHT22;40423;53.176;6.002;2023-04-06T10:08:22;12.40;84.30
54518;DHT22;40423;53.176;6.002;2023-04-06T10:10:50;12.40;84.30
54518;DHT22;40423;53.176;6.002;2023-04-06T10:13:17;12.40;83.50
54518;DHT22;40423;53.176;6.002;2023-04-06T10:15:44;12.30;83.20
54518;DHT22;40423;53.176;6.002;2023-04-06T10:18:10;12.30;82.70
54518;DHT22;40423;53.176;6.002;2023-04-06T10:21:06;12.30;83.30
54518;DHT22;40423;53.176;6.002;2023-04-06T10:23:41;12.40;83.50
54518;DHT22;40423;53.176;6.002;2023-04-06T10:26:17;12.60;83.20
54518;DHT22;40423;53.176;6.002;2023-04-06T10:28:45;12.40;82.70
54518;DHT22;40423;53.176;6.002;2023-04-06T10:31:11;12.30;83.30
54518;DHT22;40423;53.176;6.002;2023-04-06T10:33:36;12.50;84.60
54518;DHT22;40423;53.176;6.002;2023-04-06T10:36:21;12.60;84.50
54518;DHT22;40423;53.176;6.002;2023-04-06T10:38:53;12.60;83.30
54518;DHT22;40423;53.176;6.002;2023-04-06T10:41:18;12.60;83.00
54518;DHT22;40423;53.176;6.002;2023-04-06T10:43:55;12.50;83.00
54518;DHT22;40423;53.176;6.002;2023-04-06T10:46:26;12.30;81.50
54518;DHT22;40423;53.176;6.002;2023-04-06T10:48:52;12.30;82.60
54518;DHT22;40423;53.176;6.002;2023-04-06T10:51:18;12.20;82.40
54518;DHT22;40423;53.176;6.002;2023-04-06T10:53:49;12.20;82.40
54518;DHT22;40423;53.176;6.002;2023-04-06T10:56:17;12.30;82.90
54518;DHT22;40423;53.176;6.002;2023-04-06T10:58:54;12.30;83.30
54518;DHT22;40423;53.176;6.002;2023-04-06T11:01:22;12.50;82.50
54518;DHT22;40423;53.176;6.002;2023-04-06T11:03:51;12.60;83.20
54518;DHT22;40423;53.176;6.002;2023-04-06T11:06:27;12.70;82.80
54518;DHT22;40423;53.176;6.002;2023-04-06T11:08:55;12.60;81.50
54518;DHT22;40423;53.176;6.002;2023-04-06T11:11:23;12.70;81.50
54518;DHT22;40423;53.176;6.002;2023-04-06T11:13:51;12.80;80.50
54518;DHT22;40423;53.176;6.002;2023-04-06T11:19:00;12.90;81.20
54518;DHT22;40423;53.176;6.002;2023-04-06T11:24:15;13.00;80.60
54518;DHT22;40423;53.176;6.002;2023-04-06T11:26:44;13.20;81.70
54518;DHT22;40423;53.176;6.002;2023-04-06T11:29:11;13.30;80.70
54518;DHT22;40423;53.176;6.002;2023-04-06T11:31:42;13.40;81.00
54518;DHT22;40423;53.176;6.002;2023-04-06T11:34:28;13.40;79.90
54518;DHT22;40423;53.176;6.002;2023-04-06T11:36:59;13.20;79.50
54518;DHT22;40423;53.176;6.002;2023-04-06T11:39:27;13.20;80.60
54518;DHT22;40423;53.176;6.002;2023-04-06T11:41:57;13.10;80.90
54518;DHT22;40423;53.176;6.002;2023-04-06T11:44:33;13.20;80.90
54518;DHT22;40423;53.176;6.002;2023-04-06T11:46:59;13.20;81.80
54518;DHT22;40423;53.176;6.002;2023-04-06T11:49:30;13.10;81.00
54518;DHT22;40423;53.176;6.002;2023-04-06T11:51:56;13.10;81.60
54518;DHT22;40423;53.176;6.002;2023-04-06T11:54:35;13.10;82.40
54518;DHT22;40423;53.176;6.002;2023-04-06T11:57:03;13.20;81.90
54518;DHT22;40423;53.176;6.002;2023-04-06T11:59:29;13.20;81.90
54518;DHT22;40423;53.176;6.002;2023-04-06T12:01:57;13.30;81.80
54518;DHT22;40423;53.176;6.002;2023-04-06T12:04:23;13.40;81.40
54518;DHT22;40423;53.176;6.002;2023-04-06T12:06:49;13.40;81.00
54518;DHT22;40423;53.176;6.002;2023-04-06T12:09:16;13.40;81.50
54518;DHT22;40423;53.176;6.002;2023-04-06T12:11:46;13.40;81.50
54518;DHT22;40423;53.176;6.002;2023-04-06T12:14:12;13.40;81.90
54518;DHT22;40423;53.176;6.002;2023-04-06T12:16:39;13.40;81.80
54518;DHT22;40423;53.176;6.002;2023-04-06T12:19:05;13.30;81.80
54518;DHT22;40423;53.176;6.002;2023-04-06T12:21:31;13.40;81.90
54518;DHT22;40423;53.176;6.002;2023-04-06T12:23:58;13.40;82.20
54518;DHT22;40423;53.176;6.002;2023-04-06T12:26:24;13.50;82.10
54518;DHT22;40423;53.176;6.002;2023-04-06T12:28:50;13.50;82.40
54518;DHT22;40423;53.176;6.002;2023-04-06T12:31:16;13.60;83.00
54518;DHT22;40423;53.176;6.002;2023-04-06T12:33:43;13.70;82.50
54518;DHT22;40423;53.176;6.002;2023-04-06T12:36:14;13.80;82.90
54518;DHT22;40423;53.176;6.002;2023-04-06T12:38:41;13.80;83.00
54518;DHT22;40423;53.176;6.002;2023-04-06T12:41:07;13.70;82.70
54518;DHT22;40423;53.176;6.002;2023-04-06T12:43:33;13.60;83.00
54518;DHT22;40423;53.176;6.002;2023-04-06T12:45:59;13.60;83.10
54518;DHT22;40423;53.176;6.002;2023-04-06T12:48:25;13.50;82.80
54518;DHT22;40423;53.176;6.002;2023-04-06T12:51:03;13.30;82.90
54518;DHT22;40423;53.176;6.002;2023-04-06T12:53:29;13.30;84.50
54518;DHT22;40423;53.176;6.002;2023-04-06T12:55:55;13.30;85.50
54518;DHT22;40423;53.176;6.002;2023-04-06T12:58:22;13.30;86.30
54518;DHT22;40423;53.176;6.002;2023-04-06T13:00:49;13.30;86.90
54518;DHT22;40423;53.176;6.002;2023-04-06T13:03:19;13.30;87.60
54518;DHT22;40423;53.176;6.002;2023-04-06T13:05:51;13.40;88.60
54518;DHT22;40423;53.176;6.002;2023-04-06T13:08:18;13.30;90.10
54518;DHT22;40423;53.176;6.002;2023-04-06T13:10:48;13.30;90.70
54518;DHT22;40423;53.176;6.002;2023-04-06T13:13:21;13.40;90.60
54518;DHT22;40423;53.176;6.002;2023-04-06T13:15:47;13.50;91.00
54518;DHT22;40423;53.176;6.002;2023-04-06T13:18:13;13.40;91.20
54518;DHT22;40423;53.176;6.002;2023-04-06T13:20:38;13.30;91.60
54518;DHT22;40423;53.176;6.002;2023-04-06T13:23:05;13.30;91.60
54518;DHT22;40423;53.176;6.002;2023-04-06T13:25:30;13.30;91.80
54518;DHT22;40423;53.176;6.002;2023-04-06T13:27:58;13.10;92.30
54518;DHT22;40423;53.176;6.002;2023-04-06T13:30:24;13.10;92.40
54518;DHT22;40423;53.176;6.002;2023-04-06T13:32:50;13.00;92.70
54518;DHT22;40423;53.176;6.002;2023-04-06T13:35:16;12.90;92.70
54518;DHT22;40423;53.176;6.002;2023-04-06T13:37:42;12.80;92.70
54518;DHT22;40423;53.176;6.002;2023-04-06T13:40:09;12.70;93.00
54518;DHT22;40423;53.176;6.002;2023-04-06T13:42:35;12.50;93.20
54518;DHT22;40423;53.176;6.002;2023-04-06T13:45:01;12.40;93.50
54518;DHT22;40423;53.176;6.002;2023-04-06T13:47:26;12.20;93.90
54518;DHT22;40423;53.176;6.002;2023-04-06T13:49:53;12.10;94.50
54518;DHT22;40423;53.176;6.002;2023-04-06T13:52:20;12.00;95.10
54518;DHT22;40423;53.176;6.002;2023-04-06T13:54:46;11.80;95.30
54518;DHT22;40423;53.176;6.002;2023-04-06T13:57:12;11.70;96.20
54518;DHT22;40423;53.176;6.002;2023-04-06T13:59:38;11.70;96.70
54518;DHT22;40423;53.176;6.002;2023-04-06T14:02:06;11.60;96.60
54518;DHT22;40423;53.176;6.002;2023-04-06T14:04:32;11.50;96.80
54518;DHT22;40423;53.176;6.002;2023-04-06T14:07:00;11.50;97.30
54518;DHT22;40423;53.176;6.002;2023-04-06T14:09:26;11.40;97.70
54518;DHT22;40423;53.176;6.002;2023-04-06T14:11:52;11.30;98.20
54518;DHT22;40423;53.176;6.002;2023-04-06T14:14:19;11.20;98.50
54518;DHT22;40423;53.176;6.002;2023-04-06T14:16:44;11.10;99.10
54518;DHT22;40423;53.176;6.002;2023-04-06T14:19:12;11.10;99.40
54518;DHT22;40423;53.176;6.002;2023-04-06T14:21:38;11.00;99.90
54518;DHT22;40423;53.176;6.002;2023-04-06T14:24:06;11.00;99.90
54518;DHT22;40423;53.176;6.002;2023-04-06T14:26:32;11.00;99.90
54518;DHT22;40423;53.176;6.002;2023-04-06T14:29:02;11.00;99.90
54518;DHT22;40423;53.176;6.002;2023-04-06T14:31:28;10.90;99.90
54518;DHT22;40423;53.176;6.002;2023-04-06T14:33:54;10.90;99.90
54518;DHT22;40423;53.176;6.002;2023-04-06T14:36:20;10.90;99.90
54518;DHT22;40423;53.176;6.002;2023-04-06T14:38:45;10.80;99.90
54518;DHT22;40423;53.176;6.002;2023-04-06T14:41:22;10.80;99.90
54518;DHT22;40423;53.176;6.002;2023-04-06T14:43:48;10.70;99.90
54518;DHT22;40423;53.176;6.002;2023-04-06T14:46:14;10.60;99.90
54518;DHT22;40423;53.176;6.002;2023-04-06T14:48:41;10.60;99.90
54518;DHT22;40423;53.176;6.002;2023-04-06T14:51:07;10.60;99.90
54518;DHT22;40423;53.176;6.002;2023-04-06T14:53:33;10.60;99.90
54518;DHT22;40423;53.176;6.002;2023-04-06T14:55:58;10.60;99.90
54518;DHT22;40423;53.176;6.002;2023-04-06T14:58:25;10.50;99.90
54518;DHT22;40423;53.176;6.002;2023-04-06T15:01:01;10.40;99.90
54518;DHT22;40423;53.176;6.002;2023-04-06T15:03:28;10.30;99.90
54518;DHT22;40423;53.176;6.002;2023-04-06T15:05:55;10.20;99.90
54518;DHT22;40423;53.176;6.002;2023-04-06T15:08:22;10.10;99.90
54518;DHT22;40423;53.176;6.002;2023-04-06T15:10:49;10.00;99.90
54518;DHT22;40423;53.176;6.002;2023-04-06T15:13:15;9.90;99.90
54518;DHT22;40423;53.176;6.002;2023-04-06T15:15:41;9.90;99.90
54518;DHT22;40423;53.176;6.002;2023-04-06T15:18:07;9.90;99.90
54518;DHT22;40423;53.176;6.002;2023-04-06T15:20:33;9.80;99.90
54518;DHT22;40423;53.176;6.002;2023-04-06T15:23:01;9.80;99.90
54518;DHT22;40423;53.176;6.002;2023-04-06T15:25:27;9.70;99.90
54518;DHT22;40423;53.176;6.002;2023-04-06T15:27:54;9.60;99.90
54518;DHT22;40423;53.176;6.002;2023-04-06T15:30:20;9.50;99.90
54518;DHT22;40423;53.176;6.002;2023-04-06T15:32:57;9.50;99.90
54518;DHT22;40423;53.176;6.002;2023-04-06T15:35:26;9.50;99.90
54518;DHT22;40423;53.176;6.002;2023-04-06T15:37:53;9.50;99.90
54518;DHT22;40423;53.176;6.002;2023-04-06T15:40:18;9.40;99.90
54518;DHT22;40423;53.176;6.002;2023-04-06T15:42:44;9.40;99.90
54518;DHT22;40423;53.176;6.002;2023-04-06T15:45:11;9.40;99.90
54518;DHT22;40423;53.176;6.002;2023-04-06T15:47:38;9.40;99.90